Terminal Aerodrome Forecast
Issued by NWS Sioux Falls, SD

Home | Current Version | Previous Version | Text Only | Print | Product List | Glossary On
Versions: 1 2 3 4 5 6 7 8 9 10 11 12 13 14 15 16 17 18 19 20 21
480
FTUS43 KFSD 261133
TAFHON
TAF
KHON 261133Z 2612/2712 32007KT 6SM BR BKN015 OVC035
     FM261400 32008KT P6SM BKN035
     FM261800 31009KT P6SM BKN050
     FM270200 VRB03KT P6SM SKC=

USA.gov is the U.S. government's official web portal to all federal, state and local government web resources and services.